Time;durP1;ratioP1;P1;durP2;ratioP2;P2;SDS_P1;SDS_P2;PMS_P1;PMS_P2;Temp;Humidity;BMP_temperature;BMP_pressure;BME280_temperature;BME280_humidity;BME280_pressure;Samples;Min_cycle;Max_cycle;Signal;HPM_P1;HPM_P2
2023/10/09 00:03:03;;;;;;;7.25;4.55;;;23.70;63.10;;;;;;5011387;28;88057;-84
2023/10/09 00:08:10;;;;;;;4.95;3.90;;;23.70;63.10;;;;;;5013777;28;86864;-88
2023/10/09 00:10:44;;;;;;;4.57;3.58;;;23.70;63.20;;;;;;5014303;28;88822;-82
2023/10/09 00:13:10;;;;;;;5.43;3.92;;;23.70;63.10;;;;;;4995655;28;88681;-82
2023/10/09 00:15:36;;;;;;;6.55;4.30;;;23.70;63.20;;;;;;4995831;28;87905;-82
2023/10/09 00:18:05;;;;;;;5.05;3.78;;;23.70;63.20;;;;;;4996823;28;88952;-82
2023/10/09 00:20:41;;;;;;;5.10;4.15;;;23.70;63.40;;;;;;4996038;28;90108;-81
2023/10/09 00:23:15;;;;;;;4.85;3.63;;;23.70;63.30;;;;;;5016313;28;87833;-85
2023/10/09 00:26:05;;;;;;;5.25;3.95;;;23.70;63.20;;;;;;4986134;28;87004;-82
2023/10/09 00:28:30;;;;;;;4.13;3.40;;;23.60;63.20;;;;;;5029388;27;87649;-81
2023/10/09 00:30:56;;;;;;;5.78;3.97;;;23.70;63.20;;;;;;5011627;28;89993;-86
2023/10/09 00:33:22;;;;;;;5.95;4.25;;;23.70;63.20;;;;;;4996424;28;91193;-82
2023/10/09 00:35:54;;;;;;;5.35;3.88;;;23.70;63.20;;;;;;5016448;28;87525;-83
2023/10/09 00:40:47;;;;;;;4.90;3.60;;;23.60;63.30;;;;;;5014312;28;87674;-82
2023/10/09 00:43:13;;;;;;;8.23;3.65;;;23.60;63.10;;;;;;5014522;28;87112;-82
2023/10/09 00:45:50;;;;;;;5.80;4.15;;;23.60;63.30;;;;;;5013975;28;87414;-81
2023/10/09 00:48:27;;;;;;;4.28;3.58;;;23.60;63.30;;;;;;5015332;28;87441;-88
2023/10/09 00:50:53;;;;;;;5.70;4.28;;;23.60;63.20;;;;;;5029854;28;90567;-81
2023/10/09 00:53:32;;;;;;;3.83;3.25;;;23.60;63.20;;;;;;5013348;28;87380;-83
2023/10/09 00:56:39;;;;;;;5.70;3.95;;;23.50;63.30;;;;;;5012498;27;88002;-82
2023/10/09 00:59:13;;;;;;;5.10;3.80;;;23.60;63.40;;;;;;5010858;28;87578;-84
2023/10/09 01:01:48;;;;;;;6.13;3.60;;;23.50;63.30;;;;;;5013415;28;89419;-81
2023/10/09 01:04:17;;;;;;;5.20;3.70;;;23.50;63.20;;;;;;5013837;28;87795;-84
2023/10/09 01:07:04;;;;;;;4.75;3.60;;;23.50;63.20;;;;;;5013187;28;87563;-82
2023/10/09 01:09:36;;;;;;;6.30;4.10;;;23.50;63.30;;;;;;5014476;28;87581;-82
2023/10/09 01:14:27;;;;;;;5.95;3.95;;;23.50;63.20;;;;;;5013272;28;86835;-84
2023/10/09 01:16:55;;;;;;;5.80;3.90;;;23.50;63.10;;;;;;4999977;27;87151;-87
2023/10/09 01:19:23;;;;;;;5.05;3.83;;;23.50;63.20;;;;;;5001380;28;87695;-88
2023/10/09 01:22:12;;;;;;;4.72;3.70;;;23.50;63.40;;;;;;4994301;28;89006;-85
2023/10/09 01:24:39;;;;;;;4.90;3.63;;;23.50;63.30;;;;;;4995127;28;90778;-83
2023/10/09 01:27:12;;;;;;;5.38;3.58;;;23.50;63.50;;;;;;5015050;28;87255;-82
2023/10/09 01:29:41;;;;;;;5.75;3.90;;;23.50;63.40;;;;;;5010544;28;87762;-87
2023/10/09 01:32:16;;;;;;;7.57;4.78;;;23.50;63.20;;;;;;4974870;28;88345;-86
2023/10/09 01:34:49;;;;;;;4.07;2.92;;;23.50;63.30;;;;;;5003916;28;89027;-81
2023/10/09 01:37:22;;;;;;;4.78;3.42;;;23.50;63.30;;;;;;5013809;28;87630;-88
2023/10/09 01:39:50;;;;;;;5.32;3.75;;;23.50;63.30;;;;;;4995134;28;90370;-86
2023/10/09 01:42:25;;;;;;;6.30;4.30;;;23.40;63.30;;;;;;5012547;28;87579;-81
2023/10/09 01:44:53;;;;;;;5.95;3.88;;;23.50;63.30;;;;;;4973971;28;94397;-85
2023/10/09 01:47:21;;;;;;;4.60;3.60;;;23.40;63.40;;;;;;4975466;28;88510;-82
2023/10/09 01:49:49;;;;;;;4.28;3.25;;;23.40;63.30;;;;;;4979411;28;88975;-82
2023/10/09 01:52:16;;;;;;;4.88;3.65;;;23.40;63.30;;;;;;4996842;28;88071;-83
2023/10/09 01:54:49;;;;;;;4.22;3.50;;;23.40;63.20;;;;;;4973668;28;89603;-86
2023/10/09 01:57:21;;;;;;;4.80;3.50;;;23.40;63.10;;;;;;4991443;28;87425;-84
2023/10/09 01:59:49;;;;;;;4.55;3.50;;;23.40;63.30;;;;;;4990077;28;91710;-81
2023/10/09 02:02:30;;;;;;;5.80;3.65;;;23.40;63.40;;;;;;5006665;28;88003;-82
2023/10/09 02:05:22;;;;;;;5.55;3.58;;;23.40;63.40;;;;;;4992488;28;91686;-83
2023/10/09 02:07:44;;;;;;;4.68;3.80;;;23.40;63.30;;;;;;5011552;28;87199;-85
2023/10/09 02:10:25;;;;;;;6.05;3.85;;;23.40;63.40;;;;;;4991935;28;89158;-85
2023/10/09 02:12:57;;;;;;;4.70;3.50;;;23.40;63.40;;;;;;4990626;28;92682;-82
2023/10/09 02:18:18;;;;;;;4.25;3.42;;;23.40;63.30;;;;;;5011765;28;87466;-86
2023/10/09 02:20:45;;;;;;;5.95;4.00;;;23.40;63.50;;;;;;4993479;28;94401;-82
2023/10/09 02:23:25;;;;;;;5.10;3.47;;;23.40;63.50;;;;;;5011990;28;88042;-85
2023/10/09 02:25:56;;;;;;;3.65;3.05;;;23.40;63.40;;;;;;5012386;28;87908;-86
2023/10/09 02:28:22;;;;;;;4.40;3.30;;;23.40;63.60;;;;;;5010409;28;87520;-88
2023/10/09 02:31:00;;;;;;;4.35;3.55;;;23.40;63.50;;;;;;4993207;28;87540;-82
2023/10/09 02:33:30;;;;;;;4.97;3.87;;;23.40;63.50;;;;;;5012617;28;88659;-82
2023/10/09 02:35:59;;;;;;;4.80;3.67;;;23.30;63.50;;;;;;5012060;28;88546;-85
2023/10/09 02:38:27;;;;;;;5.80;4.07;;;23.30;63.30;;;;;;5008385;28;88508;-85
2023/10/09 02:41:38;;;;;;;5.53;3.33;;;23.30;63.40;;;;;;5007476;27;89023;-82
2023/10/09 02:43:46;;;;;;;4.15;3.20;;;23.30;63.30;;;;;;4988140;28;87824;-82
2023/10/09 02:46:28;;;;;;;4.88;3.65;;;23.30;63.50;;;;;;5011526;28;87341;-81
2023/10/09 02:48:56;;;;;;;5.30;3.83;;;23.30;63.60;;;;;;4993625;28;87536;-83
2023/10/09 02:51:33;;;;;;;5.00;3.55;;;23.30;63.60;;;;;;5011474;28;87757;-81
2023/10/09 02:54:06;;;;;;;4.82;3.63;;;23.30;63.50;;;;;;4993786;28;90800;-86
2023/10/09 02:56:47;;;;;;;4.82;3.22;;;23.30;63.40;;;;;;5012252;28;88038;-84
2023/10/09 02:59:13;;;;;;;5.13;3.63;;;23.30;63.50;;;;;;5012586;28;87277;-82
2023/10/09 03:01:40;;;;;;;4.35;3.35;;;23.30;64.20;;;;;;4993935;28;87391;-81
2023/10/09 03:04:06;;;;;;;4.15;3.38;;;23.30;63.50;;;;;;5018696;28;92428;-83
2023/10/09 03:06:37;;;;;;;4.57;3.53;;;23.30;63.50;;;;;;4994253;28;88280;-82
2023/10/09 03:09:16;;;;;;;6.78;4.10;;;23.30;63.40;;;;;;4994440;28;87247;-83
2023/10/09 03:14:17;;;;;;;4.10;3.00;;;23.30;63.40;;;;;;5119667;22;88174;-89
2023/10/09 03:16:43;;;;;;;4.05;3.15;;;23.30;63.40;;;;;;4949713;28;89925;-88
2023/10/09 03:19:26;;;;;;;5.63;3.97;;;23.30;63.40;;;;;;4945650;28;87630;-88
2023/10/09 03:21:52;;;;;;;3.97;3.13;;;23.30;63.30;;;;;;4950131;28;87938;-88
2023/10/09 03:24:22;;;;;;;3.80;3.40;;;23.30;63.50;;;;;;4950155;28;88213;-88
2023/10/09 03:26:49;;;;;;;4.13;3.15;;;23.20;63.40;;;;;;4929096;28;92630;-89
2023/10/09 03:29:15;;;;;;;4.35;3.40;;;23.30;63.50;;;;;;4928385;28;88824;-87
2023/10/09 03:31:43;;;;;;;4.90;3.75;;;23.20;63.50;;;;;;4940870;28;88597;-87
2023/10/09 03:34:10;;;;;;;4.35;3.53;;;23.20;63.40;;;;;;4949120;28;88925;-86
2023/10/09 03:36:39;;;;;;;3.92;3.10;;;23.30;63.50;;;;;;4945585;28;87404;-87
2023/10/09 03:39:20;;;;;;;5.65;3.83;;;23.20;63.30;;;;;;4930825;28;87608;-87
2023/10/09 03:41:50;;;;;;;4.30;3.55;;;23.30;63.50;;;;;;4951178;28;89990;-90
2023/10/09 03:44:18;;;;;;;3.67;3.03;;;23.20;63.40;;;;;;4951544;28;87943;-85
2023/10/09 03:46:44;;;;;;;4.60;3.42;;;23.20;63.40;;;;;;4949335;28;88704;-89
2023/10/09 03:49:12;;;;;;;4.38;3.00;;;23.20;63.50;;;;;;4953160;28;87508;-89
2023/10/09 03:51:39;;;;;;;3.97;3.10;;;23.20;63.50;;;;;;4949354;28;89373;-88
2023/10/09 03:54:07;;;;;;;4.20;3.45;;;23.20;63.50;;;;;;4951274;28;88718;-86
2023/10/09 03:56:33;;;;;;;4.00;3.00;;;23.20;63.40;;;;;;4951696;28;89180;-88
2023/10/09 03:59:01;;;;;;;4.50;3.22;;;23.20;63.40;;;;;;4952100;28;87061;-86
2023/10/09 04:03:55;;;;;;;4.20;3.33;;;23.20;63.20;;;;;;4951057;28;87529;-89
2023/10/09 04:06:33;;;;;;;4.57;3.53;;;23.20;63.20;;;;;;4950809;28;89413;-87
2023/10/09 04:14:49;;;;;;;4.55;3.33;;;23.20;63.30;;;;;;4950007;28;88227;-86
2023/10/09 04:22:38;;;;;;;5.18;3.85;;;23.20;63.70;;;;;;4942852;28;87230;-88
2023/10/09 04:25:07;;;;;;;4.78;3.47;;;23.20;63.50;;;;;;4951679;28;88520;-86
2023/10/09 04:27:36;;;;;;;3.85;3.05;;;23.20;63.50;;;;;;4952031;28;87379;-87
2023/10/09 04:30:02;;;;;;;3.83;2.95;;;23.20;63.50;;;;;;4953956;28;88032;-89
2023/10/09 04:32:30;;;;;;;3.45;2.72;;;23.20;63.50;;;;;;4951349;28;87208;-88
2023/10/09 04:35:19;;;;;;;3.93;2.97;;;23.20;63.60;;;;;;4949634;28;91517;-88
2023/10/09 04:37:44;;;;;;;4.05;3.22;;;23.20;63.50;;;;;;4938915;28;88632;-89
2023/10/09 04:40:12;;;;;;;4.32;3.50;;;23.20;63.50;;;;;;4938030;28;87408;-88
2023/10/09 04:42:38;;;;;;;3.50;2.80;;;23.20;63.40;;;;;;4950184;28;87769;-91
2023/10/09 04:47:37;;;;;;;4.15;3.15;;;23.20;63.50;;;;;;4950173;28;90144;-88
2023/10/09 04:57:45;;;;;;;4.03;3.17;;;23.20;63.50;;;;;;4950110;28;88473;-88
2023/10/09 05:05:58;;;;;;;4.50;3.35;;;23.10;63.30;;;;;;4934749;28;92051;-89
2023/10/09 05:11:34;;;;;;;3.75;2.80;;;23.10;63.60;;;;;;4950289;28;88840;-87
2023/10/09 05:13:43;;;;;;;3.53;2.90;;;23.10;63.40;;;;;;4950893;28;87791;-87
2023/10/09 05:16:28;;;;;;;3.92;3.47;;;23.10;63.50;;;;;;4951011;28;89039;-88
2023/10/09 05:18:59;;;;;;;3.30;2.60;;;23.10;63.30;;;;;;4946149;28;88145;-89
2023/10/09 05:32:15;;;;;;;3.63;3.08;;;23.10;63.20;;;;;;4930874;28;87871;-86
2023/10/09 05:37:42;;;;;;;3.92;3.13;;;23.10;63.30;;;;;;4939003;28;88994;-87
2023/10/09 05:42:45;;;;;;;4.05;3.20;;;23.10;63.20;;;;;;4948717;28;87663;-87
2023/10/09 05:47:57;;;;;;;3.88;2.95;;;23.10;63.30;;;;;;4949874;28;91709;-87
2023/10/09 05:53:17;;;;;;;3.47;3.03;;;23.00;63.30;;;;;;4943561;28;87859;-88
2023/10/09 06:01:06;;;;;;;3.75;2.85;;;23.10;63.40;;;;;;4940308;28;88043;-90
2023/10/09 06:04:15;;;;;;;3.83;2.97;;;23.00;63.30;;;;;;4941929;28;87946;-87
2023/10/09 06:06:45;;;;;;;3.83;3.20;;;23.10;63.20;;;;;;4930385;28;87396;-88
2023/10/09 06:14:25;;;;;;;8.30;3.25;;;23.10;63.30;;;;;;4949789;28;87506;-88
2023/10/09 06:17:15;;;;;;;4.47;3.17;;;23.00;62.60;;;;;;4945788;28;89565;-87
2023/10/09 06:19:45;;;;;;;5.25;3.13;;;23.00;62.10;;;;;;4941421;28;88687;-90
2023/10/09 06:24:57;;;;;;;12.35;4.63;;;23.10;62.20;;;;;;4944413;28;87506;-89
2023/10/09 06:30:15;;;;;;;3.85;3.22;;;23.00;63.40;;;;;;4948218;28;89372;-88
2023/10/09 06:33:57;;;;;;;8.20;3.75;;;23.00;63.40;;;;;;4930689;28;93682;-88
2023/10/09 06:35:35;;;;;;;5.28;3.45;;;23.00;63.80;;;;;;4926702;28;90109;-90
2023/10/09 06:45:57;;;;;;;7.35;3.85;;;23.00;62.70;;;;;;4946553;28;87478;-88
2023/10/09 06:53:58;;;;;;;9.38;5.47;;;23.00;62.10;;;;;;4928874;28;91305;-89
2023/10/09 06:59:15;;;;;;;9.43;4.70;;;23.00;61.00;;;;;;4929740;28;87797;-89
2023/10/09 07:01:46;;;;;;;8.43;4.93;;;23.10;61.30;;;;;;4928917;28;89032;-90
2023/10/09 07:07:35;;;;;;;11.85;4.82;;;23.00;62.10;;;;;;4917020;28;87285;-89
2023/10/09 07:10:32;;;;;;;7.80;4.35;;;23.00;62.30;;;;;;4964062;28;87305;-91
2023/10/09 07:13:01;;;;;;;9.02;4.30;;;23.00;61.90;;;;;;4942368;28;90709;-89
2023/10/09 07:18:23;;;;;;;8.18;4.78;;;23.00;62.00;;;;;;4940381;28;88009;-89
2023/10/09 07:21:01;;;;;;;11.13;4.72;;;23.00;62.20;;;;;;4938704;28;92123;-90
2023/10/09 07:23:32;;;;;;;6.22;4.13;;;23.00;61.90;;;;;;4958740;28;90034;-91
2023/10/09 07:26:18;;;;;;;11.15;4.90;;;23.00;62.00;;;;;;4956324;28;89212;-90
2023/10/09 07:28:48;;;;;;;8.63;5.13;;;23.00;62.30;;;;;;4958161;28;87555;-93
2023/10/09 07:31:24;;;;;;;9.88;4.07;;;23.00;62.30;;;;;;4948637;28;87490;-90
2023/10/09 07:33:52;;;;;;;9.82;4.70;;;23.00;62.30;;;;;;4938385;28;87578;-90
2023/10/09 07:36:29;;;;;;;12.95;4.97;;;23.00;61.90;;;;;;4940798;28;89987;-89
2023/10/09 07:38:55;;;;;;;12.75;5.30;;;23.00;60.90;;;;;;4962278;28;87066;-91
2023/10/09 07:43:47;;;;;;;30.92;9.13;;;23.00;62.10;;;;;;4954413;28;88208;-91
2023/10/09 07:46:51;;;;;;;31.70;9.13;;;23.00;61.90;;;;;;4955293;28;88363;-87
2023/10/09 07:49:24;;;;;;;25.67;9.93;;;23.00;61.60;;;;;;4952692;28;88837;-89
2023/10/09 07:51:52;;;;;;;21.10;8.45;;;23.00;61.80;;;;;;4952210;28;87530;-87
2023/10/09 07:54:31;;;;;;;20.20;7.88;;;23.00;61.00;;;;;;4952968;28;88369;-89
2023/10/09 07:57:08;;;;;;;25.85;7.93;;;23.00;60.50;;;;;;4952659;28;88128;-88
2023/10/09 07:59:41;;;;;;;20.63;7.95;;;23.00;60.30;;;;;;4952328;28;87368;-87
2023/10/09 08:02:13;;;;;;;23.83;8.13;;;23.00;60.30;;;;;;4951975;28;87580;-87
2023/10/09 08:04:47;;;;;;;18.02;7.80;;;23.00;59.90;;;;;;4952300;28;89221;-87
2023/10/09 08:07:25;;;;;;;15.65;8.23;;;23.00;59.80;;;;;;4952059;28;88493;-89
2023/10/09 08:12:57;;;;;;;16.65;7.20;;;23.00;59.90;;;;;;4950521;28;87928;-88
2023/10/09 08:16:17;;;;;;;16.58;7.60;;;23.00;59.80;;;;;;4932531;28;89508;-89
2023/10/09 08:18:27;;;;;;;15.98;7.05;;;23.00;59.80;;;;;;4926374;28;87885;-87
2023/10/09 08:23:28;;;;;;;17.88;6.78;;;23.00;59.80;;;;;;4951620;28;87496;-88
2023/10/09 08:26:13;;;;;;;19.95;8.10;;;23.00;59.70;;;;;;4948852;28;88858;-89
2023/10/09 08:28:45;;;;;;;12.88;6.43;;;23.00;59.80;;;;;;4950826;28;91000;-88
2023/10/09 08:33:58;;;;;;;14.05;7.30;;;23.00;59.80;;;;;;4951253;28;86532;-88
2023/10/09 08:36:28;;;;;;;14.18;7.53;;;23.00;59.60;;;;;;4949940;28;89745;-87
2023/10/09 08:39:13;;;;;;;16.92;7.90;;;23.00;59.80;;;;;;4969251;28;87110;-91
2023/10/09 08:41:39;;;;;;;17.98;7.82;;;23.00;59.80;;;;;;4951931;28;88660;-87
2023/10/09 08:44:05;;;;;;;16.67;6.15;;;23.00;60.10;;;;;;4950579;28;89430;-88
2023/10/09 08:46:37;;;;;;;18.17;6.70;;;23.00;60.00;;;;;;4949954;28;87832;-88
2023/10/09 08:49:10;;;;;;;15.30;7.45;;;23.00;60.30;;;;;;4948560;28;88716;-87
2023/10/09 08:51:37;;;;;;;15.45;7.18;;;23.00;60.30;;;;;;4942221;28;87566;-89
2023/10/09 08:54:04;;;;;;;16.65;6.78;;;23.00;60.20;;;;;;4952518;28;89892;-87
2023/10/09 08:56:30;;;;;;;16.63;7.43;;;23.00;60.10;;;;;;4950546;28;89817;-89
2023/10/09 08:59:02;;;;;;;12.73;6.63;;;23.00;60.10;;;;;;4952457;28;88425;-89
2023/10/09 09:01:31;;;;;;;11.30;6.95;;;23.00;60.40;;;;;;4946254;28;92936;-90
2023/10/09 09:03:59;;;;;;;14.68;6.85;;;23.00;60.10;;;;;;4939253;28;88175;-91
2023/10/09 09:06:25;;;;;;;12.15;6.97;;;23.00;59.90;;;;;;4951836;28;89532;-88
2023/10/09 09:08:59;;;;;;;13.80;7.15;;;23.00;59.70;;;;;;4952398;28;91048;-90
2023/10/09 09:11:30;;;;;;;10.75;6.20;;;23.00;59.50;;;;;;4953797;28;87699;-90
2023/10/09 09:14:04;;;;;;;14.73;6.45;;;23.00;59.70;;;;;;4950918;28;87443;-89
2023/10/09 09:16:32;;;;;;;13.75;7.13;;;23.00;59.90;;;;;;4952442;28;88697;-90
2023/10/09 09:19:04;;;;;;;17.63;6.53;;;23.00;59.90;;;;;;4950124;28;90544;-88
2023/10/09 09:21:38;;;;;;;13.90;6.22;;;23.00;60.10;;;;;;4950560;28;87553;-89
2023/10/09 09:24:26;;;;;;;11.85;6.38;;;23.00;60.20;;;;;;4952771;28;88788;-89
2023/10/09 09:27:12;;;;;;;9.25;6.03;;;23.00;60.30;;;;;;4949638;28;93190;-90
2023/10/09 09:29:39;;;;;;;13.50;5.90;;;23.00;60.10;;;;;;4948841;28;88137;-87
2023/10/09 09:32:17;;;;;;;11.45;6.50;;;23.00;60.30;;;;;;4948826;28;88252;-88
2023/10/09 09:34:46;;;;;;;10.73;6.50;;;23.00;60.60;;;;;;4949639;28;89941;-89
2023/10/09 09:37:31;;;;;;;12.63;6.40;;;23.00;60.60;;;;;;4948768;28;88545;-87
2023/10/09 09:40:01;;;;;;;11.88;6.25;;;23.00;60.70;;;;;;4949973;28;88886;-88
2023/10/09 09:42:34;;;;;;;15.52;6.30;;;23.00;60.70;;;;;;4948937;28;87637;-89
2023/10/09 09:45:02;;;;;;;14.02;6.30;;;23.10;60.80;;;;;;4950457;28;87678;-89
2023/10/09 09:47:29;;;;;;;12.43;6.18;;;23.10;59.90;;;;;;4948362;28;90987;-91
2023/10/09 09:49:59;;;;;;;11.57;5.22;;;23.10;60.20;;;;;;4949991;28;88748;-89
2023/10/09 09:52:38;;;;;;;9.88;5.40;;;23.00;60.60;;;;;;4952776;28;87784;-90
2023/10/09 09:55:57;;;;;;;11.63;5.78;;;23.10;60.80;;;;;;4908794;28;87363;-90
2023/10/09 10:11:45;;;;;;;12.18;5.55;;;23.20;61.30;;;;;;4822049;28;89311;-86
2023/10/09 10:14:21;;;;;;;10.10;5.30;;;23.10;61.20;;;;;;4896852;28;90704;-87
2023/10/09 10:17:20;;;;;;;9.40;5.07;;;23.10;61.30;;;;;;4939306;28;87404;-88
2023/10/09 10:20:00;;;;;;;16.67;6.07;;;23.20;61.30;;;;;;4950791;28;87071;-89
2023/10/09 10:22:30;;;;;;;11.85;5.43;;;23.10;61.40;;;;;;4948584;28;88318;-91
2023/10/09 10:25:02;;;;;;;13.60;5.20;;;23.20;61.60;;;;;;4962922;28;89239;-89
2023/10/09 10:27:33;;;;;;;12.20;5.35;;;23.20;61.50;;;;;;4949592;28;88311;-90
2023/10/09 10:30:52;;;;;;;17.13;5.15;;;23.20;61.70;;;;;;4951491;28;87899;-91
2023/10/09 10:33:12;;;;;;;18.13;5.75;;;23.20;61.50;;;;;;4947633;28;93540;-90
2023/10/09 10:35:52;;;;;;;10.70;5.80;;;23.20;61.70;;;;;;4939645;28;91731;-90
2023/10/09 10:38:32;;;;;;;9.07;5.32;;;23.20;61.70;;;;;;4931337;28;87238;-92
2023/10/09 10:41:22;;;;;;;17.10;6.32;;;23.20;61.60;;;;;;4945280;28;88356;-89
2023/10/09 10:43:54;;;;;;;10.35;5.65;;;23.20;61.70;;;;;;4928398;28;90160;-87
2023/10/09 10:46:30;;;;;;;16.73;5.55;;;23.20;61.70;;;;;;4928443;28;91385;-87
2023/10/09 10:49:34;;;;;;;12.60;6.43;;;23.20;61.70;;;;;;4931898;28;87363;-87
2023/10/09 10:52:01;;;;;;;13.68;6.10;;;23.20;61.90;;;;;;4951119;28;88146;-90
2023/10/09 10:57:00;;;;;;;11.45;5.88;;;23.20;61.80;;;;;;4950500;28;88576;-91
2023/10/09 10:59:36;;;;;;;13.07;5.20;;;23.20;61.70;;;;;;4963614;28;87664;-91
2023/10/09 11:04:45;;;;;;;14.13;6.13;;;23.20;61.60;;;;;;4941262;28;88667;-93
2023/10/09 11:07:16;;;;;;;11.68;5.43;;;23.20;61.30;;;;;;4939182;28;87894;-92
2023/10/09 11:12:37;;;;;;;11.10;6.03;;;23.20;61.70;;;;;;4951194;28;87525;-90
2023/10/09 11:18:07;;;;;;;10.98;5.85;;;23.20;61.90;;;;;;4954466;28;90716;-90
2023/10/09 11:20:39;;;;;;;10.85;5.75;;;23.20;61.90;;;;;;4953715;28;88564;-93
2023/10/09 11:25:32;;;;;;;9.75;5.20;;;23.20;62.30;;;;;;4941749;28;87606;-92
2023/10/09 11:28:23;;;;;;;13.35;5.35;;;23.20;62.20;;;;;;4931757;28;89493;-92
2023/10/09 11:30:46;;;;;;;7.93;5.70;;;23.20;62.20;;;;;;4933934;28;87373;-87
2023/10/09 11:33:14;;;;;;;10.57;5.90;;;23.20;62.30;;;;;;4949184;28;87842;-89
2023/10/09 11:35:43;;;;;;;11.70;5.53;;;23.20;62.30;;;;;;4948521;28;88408;-89
2023/10/09 11:38:24;;;;;;;11.88;5.57;;;23.20;62.40;;;;;;4951761;28;88463;-88
2023/10/09 11:43:50;;;;;;;7.47;4.80;;;23.20;62.30;;;;;;4949094;28;87280;-90
2023/10/09 11:46:13;;;;;;;9.50;4.90;;;23.20;62.20;;;;;;4948274;28;88059;-89
2023/10/09 11:49:14;;;;;;;7.22;4.80;;;23.20;62.20;;;;;;4947485;28;91722;-89
2023/10/09 11:51:37;;;;;;;7.18;5.18;;;23.20;62.20;;;;;;4948812;28;87192;-91
2023/10/09 11:54:04;;;;;;;14.32;5.43;;;23.20;62.20;;;;;;4950303;28;87901;-91
2023/10/09 11:56:33;;;;;;;11.10;5.32;;;23.20;61.50;;;;;;4949802;28;89484;-92
2023/10/09 11:59:04;;;;;;;12.37;5.30;;;23.20;61.60;;;;;;4951757;28;89046;-89
2023/10/09 12:01:35;;;;;;;7.18;4.78;;;23.20;61.90;;;;;;4945162;28;87373;-88
2023/10/09 12:04:00;;;;;;;7.15;4.75;;;23.20;61.80;;;;;;4933688;28;87184;-90
2023/10/09 12:06:32;;;;;;;9.52;5.10;;;23.20;61.90;;;;;;4935771;28;87654;-89
2023/10/09 12:08:58;;;;;;;9.75;5.30;;;23.20;61.90;;;;;;4955861;28;89449;-91
2023/10/09 12:11:28;;;;;;;6.68;4.63;;;23.30;62.00;;;;;;4955379;28;88498;-90
2023/10/09 12:13:58;;;;;;;8.55;5.10;;;23.20;61.70;;;;;;4956142;28;87362;-90
2023/10/09 12:16:32;;;;;;;;;;;23.30;61.80;;;;;;4951967;28;90581;-90
2023/10/09 12:19:02;;;;;;;8.68;4.88;;;23.30;61.70;;;;;;4946947;28;87170;-91
2023/10/09 12:21:30;;;;;;;8.52;5.43;;;23.30;61.60;;;;;;4934066;28;87008;-89
2023/10/09 12:23:59;;;;;;;5.78;4.45;;;23.30;61.50;;;;;;4953186;28;88044;-92
2023/10/09 12:26:25;;;;;;;6.97;4.43;;;23.30;61.50;;;;;;4948829;28;88770;-90
2023/10/09 12:28:51;;;;;;;9.63;4.25;;;23.30;61.10;;;;;;4942975;28;88342;-90
2023/10/09 12:31:20;;;;;;;7.40;4.75;;;23.30;61.10;;;;;;4952969;28;87600;-88
2023/10/09 12:33:47;;;;;;;10.25;5.43;;;23.30;61.30;;;;;;4948772;28;88875;-87
2023/10/09 12:36:22;;;;;;;8.45;4.90;;;23.20;61.00;;;;;;4949430;28;90126;-87
2023/10/09 12:38:54;;;;;;;11.05;4.28;;;23.20;61.00;;;;;;4929929;28;93584;-86
2023/10/09 12:41:20;;;;;;;10.40;4.53;;;23.20;60.70;;;;;;4928323;28;87411;-89
2023/10/09 12:43:48;;;;;;;7.55;4.50;;;23.20;60.90;;;;;;4941408;28;89784;-88
2023/10/09 12:46:17;;;;;;;7.88;5.00;;;23.20;60.80;;;;;;4949838;28;90040;-87
2023/10/09 12:48:47;;;;;;;8.60;4.80;;;23.20;61.00;;;;;;4941515;28;87604;-86
2023/10/09 12:51:17;;;;;;;7.25;4.85;;;23.20;60.90;;;;;;4948667;28;87483;-85
2023/10/09 12:53:48;;;;;;;9.68;4.82;;;23.20;60.90;;;;;;4929476;28;88607;-86
2023/10/09 12:56:18;;;;;;;8.88;4.40;;;23.20;60.60;;;;;;4938601;28;91660;-86
2023/10/09 12:58:52;;;;;;;;;;;23.20;60.70;;;;;;4929562;28;90773;-86
2023/10/09 13:01:21;;;;;;;9.93;4.43;;;23.20;60.60;;;;;;4933875;28;88939;-86
2023/10/09 13:03:49;;;;;;;6.72;4.75;;;23.20;60.40;;;;;;4943695;28;88231;-85
2023/10/09 13:06:23;;;;;;;9.90;4.57;;;23.20;60.40;;;;;;4930646;28;90156;-87
2023/10/09 13:08:52;;;;;;;8.27;4.72;;;23.20;60.20;;;;;;4948377;28;93022;-87
2023/10/09 13:11:21;;;;;;;6.40;4.85;;;23.20;60.30;;;;;;4948121;28;88103;-86
2023/10/09 13:13:50;;;;;;;7.57;4.32;;;23.20;60.30;;;;;;4937331;28;87921;-86
2023/10/09 13:16:24;;;;;;;7.32;4.45;;;23.20;60.20;;;;;;4947408;28;88221;-85
2023/10/09 13:18:54;;;;;;;8.70;5.13;;;23.20;60.00;;;;;;4947392;28;91907;-86
2023/10/09 13:21:22;;;;;;;6.53;4.32;;;23.20;60.10;;;;;;4948868;28;87868;-86
2023/10/09 13:23:49;;;;;;;9.63;5.40;;;23.20;60.00;;;;;;4923222;28;87599;-85
2023/10/09 13:26:23;;;;;;;8.10;4.75;;;23.20;60.00;;;;;;4927782;28;89422;-86
2023/10/09 13:28:50;;;;;;;8.68;4.93;;;23.20;59.80;;;;;;4919867;28;90508;-85
2023/10/09 13:31:17;;;;;;;8.75;4.85;;;23.20;59.90;;;;;;4936114;28;87663;-85
2023/10/09 13:33:43;;;;;;;11.25;5.35;;;23.20;59.90;;;;;;4944408;28;87935;-85
2023/10/09 13:36:33;;;;;;;7.60;4.72;;;23.20;59.70;;;;;;4936808;28;90502;-86
2023/10/09 13:41:45;;;;;;;8.98;4.95;;;23.20;59.40;;;;;;4949968;28;87283;-86
2023/10/09 13:44:10;;;;;;;8.27;4.40;;;23.20;59.90;;;;;;4948484;28;87429;-87
2023/10/09 13:46:41;;;;;;;14.70;5.30;;;23.20;59.80;;;;;;4948748;28;92055;-86
2023/10/09 13:49:13;;;;;;;9.23;5.00;;;23.20;59.80;;;;;;4949197;28;87345;-87
2023/10/09 13:51:46;;;;;;;13.52;5.95;;;23.20;59.90;;;;;;4947048;28;88777;-86
2023/10/09 13:57:04;;;;;;;10.23;5.18;;;23.30;59.80;;;;;;4947755;28;92606;-86
2023/10/09 13:59:30;;;;;;;11.10;5.28;;;23.30;60.00;;;;;;4947843;28;88964;-85
2023/10/09 14:01:56;;;;;;;12.95;5.53;;;23.30;59.90;;;;;;4947925;28;87669;-86
2023/10/09 14:04:23;;;;;;;10.50;5.18;;;23.30;59.90;;;;;;4948155;28;88672;-86
2023/10/09 14:06:56;;;;;;;11.05;4.95;;;23.30;60.00;;;;;;4948521;28;90692;-86
2023/10/09 14:09:37;;;;;;;11.10;4.80;;;23.30;59.90;;;;;;4947791;28;89674;-85
2023/10/09 14:12:11;;;;;;;11.70;4.85;;;23.20;59.90;;;;;;4950601;28;87354;-89
2023/10/09 14:14:46;;;;;;;12.90;4.43;;;23.30;60.00;;;;;;4946225;28;89352;-84
2023/10/09 14:17:19;;;;;;;13.57;4.93;;;23.30;60.60;;;;;;4947485;28;88239;-86
2023/10/09 14:19:47;;;;;;;14.82;5.60;;;23.30;60.20;;;;;;4935890;28;90000;-88
2023/10/09 14:22:17;;;;;;;9.45;5.22;;;23.30;60.40;;;;;;4935045;28;87400;-86
2023/10/09 14:24:47;;;;;;;10.02;5.15;;;23.20;60.70;;;;;;4949303;28;89331;-86
2023/10/09 14:27:19;;;;;;;11.55;5.20;;;23.30;60.60;;;;;;4948033;28;91540;-88
2023/10/09 14:29:49;;;;;;;8.40;4.47;;;23.20;60.80;;;;;;4964503;28;92114;-87
2023/10/09 14:32:15;;;;;;;8.93;4.45;;;23.30;61.10;;;;;;4949839;28;87598;-87
2023/10/09 14:34:51;;;;;;;9.15;5.05;;;23.30;61.00;;;;;;4943990;28;87532;-89
2023/10/09 14:37:18;;;;;;;7.93;4.90;;;23.20;61.30;;;;;;4928756;28;88766;-85
2023/10/09 14:39:51;;;;;;;10.05;4.60;;;23.30;61.70;;;;;;4928521;28;87997;-86
2023/10/09 14:42:17;;;;;;;11.00;4.65;;;23.30;61.90;;;;;;4920381;28;88574;-85
2023/10/09 14:44:47;;;;;;;9.05;4.80;;;23.20;61.70;;;;;;4948167;28;90866;-85
2023/10/09 14:47:14;;;;;;;13.55;5.97;;;23.30;61.70;;;;;;4948371;28;87365;-85
2023/10/09 14:52:16;;;;;;;9.68;4.78;;;23.30;61.70;;;;;;4974117;28;87700;-88
2023/10/09 14:54:44;;;;;;;14.40;5.00;;;23.30;61.90;;;;;;4973173;28;88812;-85
2023/10/09 14:57:11;;;;;;;9.02;4.47;;;23.30;62.10;;;;;;4972223;28;90843;-83
2023/10/09 14:59:37;;;;;;;8.20;4.85;;;23.20;62.10;;;;;;4972768;28;87936;-83
2023/10/09 15:02:05;;;;;;;8.95;4.55;;;23.30;62.30;;;;;;4973972;28;86947;-84
2023/10/09 15:04:31;;;;;;;8.10;5.13;;;23.30;62.00;;;;;;4972887;28;87323;-84
2023/10/09 15:06:57;;;;;;;9.10;5.07;;;23.30;62.00;;;;;;4973780;28;89122;-87
2023/10/09 15:09:28;;;;;;;9.05;5.22;;;23.30;62.50;;;;;;4980813;28;90491;-87
2023/10/09 15:11:57;;;;;;;12.45;5.00;;;23.30;63.10;;;;;;4981044;28;86869;-87
2023/10/09 15:14:29;;;;;;;13.55;5.35;;;23.30;63.10;;;;;;4980043;28;87274;-87
2023/10/09 15:16:54;;;;;;;12.88;4.95;;;23.40;62.90;;;;;;4981826;28;87199;-88
2023/10/09 15:19:29;;;;;;;12.55;5.20;;;23.40;62.80;;;;;;4981201;28;89812;-88
2023/10/09 15:21:55;;;;;;;10.73;4.90;;;23.40;62.70;;;;;;4979465;28;86843;-88
2023/10/09 15:24:29;;;;;;;8.73;4.55;;;23.40;62.90;;;;;;4975851;28;87713;-90
2023/10/09 15:27:00;;;;;;;9.38;5.15;;;23.40;62.80;;;;;;4976684;28;87439;-86
2023/10/09 15:29:32;;;;;;;9.15;5.32;;;23.40;63.10;;;;;;4974296;28;88317;-88
2023/10/09 15:32:14;;;;;;;10.63;5.43;;;23.40;63.00;;;;;;4989111;28;92536;-89
2023/10/09 15:34:41;;;;;;;9.63;5.07;;;23.40;63.00;;;;;;4958346;28;87905;-90
2023/10/09 15:37:13;;;;;;;8.52;5.13;;;23.40;62.90;;;;;;4959408;28;89156;-86
2023/10/09 15:39:45;;;;;;;9.43;4.78;;;23.40;62.80;;;;;;4954014;28;88007;-91
2023/10/09 15:42:16;;;;;;;9.68;4.82;;;23.50;62.90;;;;;;4976879;28;87439;-86
2023/10/09 15:44:47;;;;;;;9.82;5.15;;;23.50;62.80;;;;;;4976504;28;88556;-86